Time;durP1;ratioP1;P1;durP2;ratioP2;P2;SDS_P1;SDS_P2;PMS_P1;PMS_P2;Temp;Humidity;BMP_temperature;BMP_pressure;BME280_temperature;BME280_humidity;BME280_pressure;Samples;Min_cycle;Max_cycle;Signal;HPM_P1;HPM_P2
2022/08/13 00:02:21;;;;;;;2.22;1.40;;;24.40;43.40;;;;;;5010979;28;20455;-73
2022/08/13 00:05:01;;;;;;;1.45;1.35;;;24.40;43.30;;;;;;4999896;28;20202;-73
2022/08/13 00:07:27;;;;;;;1.80;1.42;;;24.40;43.60;;;;;;5022749;28;20194;-69
2022/08/13 00:09:55;;;;;;;1.98;1.48;;;24.40;43.40;;;;;;4984758;28;20188;-73
2022/08/13 00:15:19;;;;;;;2.15;1.63;;;24.50;43.50;;;;;;4992088;28;20190;-71
2022/08/13 00:17:51;;;;;;;1.63;1.30;;;24.50;43.60;;;;;;4981136;28;20285;-72
2022/08/13 00:20:24;;;;;;;2.92;1.60;;;24.50;43.70;;;;;;4973267;28;20191;-72
2022/08/13 00:22:50;;;;;;;1.85;1.40;;;24.50;44.30;;;;;;5009624;28;20194;-70
2022/08/13 00:25:20;;;;;;;1.85;1.50;;;24.50;43.90;;;;;;4977779;28;20279;-72
2022/08/13 00:27:51;;;;;;;1.67;1.20;;;24.50;43.90;;;;;;4979490;28;20214;-73
2022/08/13 00:30:18;;;;;;;2.20;1.10;;;24.50;43.80;;;;;;5009996;28;20183;-72
2022/08/13 00:32:47;;;;;;;1.20;1.08;;;24.50;43.80;;;;;;4983125;28;20254;-73
2022/08/13 00:35:13;;;;;;;2.00;1.27;;;24.50;44.00;;;;;;4979314;28;20183;-73
2022/08/13 00:37:41;;;;;;;1.83;1.20;;;24.40;43.90;;;;;;5013341;28;20254;-72
2022/08/13 00:40:11;;;;;;;1.65;1.02;;;24.40;44.10;;;;;;5015642;28;20183;-69
2022/08/13 00:42:37;;;;;;;2.03;1.20;;;24.40;44.10;;;;;;4987961;28;20185;-73
2022/08/13 00:45:05;;;;;;;1.85;1.30;;;24.30;44.10;;;;;;4996252;28;20270;-72
2022/08/13 00:50:18;;;;;;;1.90;1.35;;;24.30;44.30;;;;;;5004083;28;20270;-72
2022/08/13 00:52:49;;;;;;;1.83;1.40;;;24.20;45.10;;;;;;4981489;28;20245;-73
2022/08/13 00:55:19;;;;;;;1.45;1.33;;;24.20;44.50;;;;;;4982653;28;20186;-70
2022/08/13 00:57:46;;;;;;;1.30;1.20;;;24.10;44.60;;;;;;4996240;28;20176;-73
2022/08/13 01:00:18;;;;;;;2.60;1.27;;;24.10;44.60;;;;;;5004971;28;20196;-73
2022/08/13 01:02:50;;;;;;;1.30;1.10;;;24.00;44.80;;;;;;4999256;28;20256;-73
2022/08/13 01:05:19;;;;;;;2.97;1.20;;;23.90;45.00;;;;;;4992009;28;20175;-73
2022/08/13 01:07:45;;;;;;;1.77;0.95;;;23.90;44.90;;;;;;5001015;28;20185;-73
2022/08/13 01:10:14;;;;;;;1.10;1.00;;;23.80;44.90;;;;;;5001799;28;20236;-72
2022/08/13 01:12:41;;;;;;;2.80;1.20;;;23.70;45.00;;;;;;4963729;28;20208;-72
2022/08/13 01:15:13;;;;;;;1.77;1.48;;;23.70;45.10;;;;;;4989793;28;20168;-69
2022/08/13 01:17:46;;;;;;;1.98;1.58;;;23.60;45.20;;;;;;4989018;28;20492;-73
2022/08/13 01:20:20;;;;;;;2.38;1.80;;;23.60;45.60;;;;;;4997959;28;20199;-73
2022/08/13 01:22:52;;;;;;;2.90;1.95;;;23.60;45.40;;;;;;4981894;28;20207;-72
2022/08/13 01:25:24;;;;;;;1.63;1.30;;;23.50;45.40;;;;;;4995386;28;20183;-70
2022/08/13 01:27:51;;;;;;;5.70;1.70;;;23.50;45.50;;;;;;4988755;28;20186;-73
2022/08/13 01:30:23;;;;;;;1.90;1.30;;;23.40;45.50;;;;;;5014892;28;20184;-72
2022/08/13 01:32:50;;;;;;;1.58;1.10;;;23.40;45.70;;;;;;5012255;28;20211;-72
2022/08/13 01:35:21;;;;;;;2.60;1.20;;;23.40;45.60;;;;;;4978389;28;20172;-72
2022/08/13 01:37:53;;;;;;;1.15;0.90;;;23.30;45.70;;;;;;4979340;28;20172;-73
2022/08/13 01:40:22;;;;;;;1.95;1.10;;;23.30;45.60;;;;;;5015559;28;20180;-70
2022/08/13 01:42:48;;;;;;;1.33;0.93;;;23.20;45.70;;;;;;5015677;28;20179;-73
2022/08/13 01:45:18;;;;;;;1.20;1.00;;;23.20;45.80;;;;;;4981332;28;20277;-73
2022/08/13 01:50:34;;;;;;;1.17;1.00;;;23.10;45.80;;;;;;4988033;28;20198;-71
2022/08/13 01:53:04;;;;;;;1.38;0.90;;;23.00;45.90;;;;;;5003374;28;20184;-70
2022/08/13 01:55:39;;;;;;;1.83;0.95;;;23.00;46.00;;;;;;4996335;28;20199;-71
2022/08/13 01:58:19;;;;;;;1.10;0.90;;;22.90;46.10;;;;;;5006862;28;20171;-72
2022/08/13 02:00:51;;;;;;;1.40;1.30;;;22.90;46.80;;;;;;4978640;28;20210;-69
2022/08/13 02:03:20;;;;;;;1.55;1.20;;;22.80;46.50;;;;;;5024068;28;20203;-71
2022/08/13 02:05:48;;;;;;;3.92;1.52;;;22.70;46.40;;;;;;5025658;28;20238;-72
2022/08/13 02:08:26;;;;;;;1.27;1.08;;;22.70;46.60;;;;;;4985563;28;20180;-72
2022/08/13 02:10:57;;;;;;;1.35;1.23;;;22.60;46.90;;;;;;5011974;28;20171;-72
2022/08/13 02:13:29;;;;;;;1.45;0.93;;;22.60;46.80;;;;;;5008617;28;20184;-71
2022/08/13 02:15:57;;;;;;;2.28;0.88;;;22.50;46.90;;;;;;5020989;28;20265;-69
2022/08/13 02:18:26;;;;;;;1.60;0.90;;;22.40;46.80;;;;;;4979967;28;20196;-73
2022/08/13 02:20:58;;;;;;;1.52;0.90;;;22.40;47.10;;;;;;5006385;28;20255;-72
2022/08/13 02:23:30;;;;;;;1.27;1.10;;;22.40;47.00;;;;;;5013980;28;20187;-70
2022/08/13 02:25:57;;;;;;;1.90;0.90;;;22.30;47.40;;;;;;4991986;28;20207;-72
2022/08/13 02:28:22;;;;;;;1.10;1.00;;;22.30;47.30;;;;;;4986948;28;20191;-70
2022/08/13 02:30:51;;;;;;;1.40;1.00;;;22.30;47.40;;;;;;4981555;28;20251;-72
2022/08/13 02:33:21;;;;;;;1.17;1.08;;;22.20;47.50;;;;;;4989441;28;20344;-71
2022/08/13 02:35:46;;;;;;;1.00;0.90;;;22.20;47.50;;;;;;4983415;28;20187;-73
2022/08/13 02:38:13;;;;;;;2.65;1.10;;;22.20;47.60;;;;;;4982776;28;20201;-72
2022/08/13 02:43:28;;;;;;;2.47;1.30;;;22.10;48.00;;;;;;4994398;28;20213;-72
2022/08/13 02:45:55;;;;;;;1.20;1.10;;;22.00;47.80;;;;;;4983287;28;20207;-72
2022/08/13 02:48:29;;;;;;;1.67;1.10;;;22.00;48.00;;;;;;5017569;28;20186;-72
2022/08/13 02:50:58;;;;;;;3.10;1.02;;;21.90;48.10;;;;;;4984727;28;20179;-73
2022/08/13 02:53:26;;;;;;;1.35;1.00;;;21.90;48.50;;;;;;4984386;28;20211;-72
2022/08/13 02:55:54;;;;;;;1.20;1.10;;;21.80;48.50;;;;;;4965732;28;20207;-72
2022/08/13 02:58:22;;;;;;;1.20;1.10;;;21.80;48.70;;;;;;4977632;28;20199;-73
2022/08/13 03:00:50;;;;;;;1.40;1.10;;;21.70;48.70;;;;;;5014742;28;20180;-71
2022/08/13 03:03:20;;;;;;;1.77;1.17;;;21.60;48.70;;;;;;4987313;28;20254;-72
2022/08/13 03:05:50;;;;;;;1.20;1.10;;;21.60;49.00;;;;;;4979972;28;20259;-72
2022/08/13 03:08:16;;;;;;;1.55;1.02;;;21.60;49.20;;;;;;5002146;28;20191;-73
2022/08/13 03:10:42;;;;;;;2.40;1.25;;;21.50;49.00;;;;;;4980996;28;20179;-72
2022/08/13 03:13:15;;;;;;;2.33;1.10;;;21.50;49.20;;;;;;4991211;28;20186;-71
2022/08/13 03:15:45;;;;;;;1.98;1.17;;;21.40;49.40;;;;;;4990149;28;20190;-72
2022/08/13 03:18:11;;;;;;;1.30;1.10;;;21.40;49.40;;;;;;5018403;28;20238;-72
2022/08/13 03:20:38;;;;;;;2.42;1.02;;;21.40;49.40;;;;;;5001367;28;20191;-72
2022/08/13 03:23:07;;;;;;;1.92;1.20;;;21.40;49.70;;;;;;5010853;28;20184;-72
2022/08/13 03:25:36;;;;;;;1.45;1.20;;;21.30;49.70;;;;;;5012271;28;20207;-72
2022/08/13 03:28:02;;;;;;;1.17;1.00;;;21.30;49.80;;;;;;4997839;28;20176;-72
2022/08/13 03:30:34;;;;;;;1.27;1.02;;;21.30;49.90;;;;;;5010956;28;20171;-71
2022/08/13 03:33:11;;;;;;;3.70;1.20;;;21.30;50.00;;;;;;4989321;28;20233;-72
2022/08/13 03:35:40;;;;;;;1.20;1.05;;;21.30;50.30;;;;;;5009962;28;20333;-72
2022/08/13 03:38:08;;;;;;;1.50;1.10;;;21.20;50.10;;;;;;5018479;28;20285;-72
2022/08/13 03:43:19;;;;;;;1.30;1.10;;;21.20;50.60;;;;;;4992537;28;20194;-72
2022/08/13 03:45:45;;;;;;;2.70;1.27;;;21.20;50.80;;;;;;5003851;28;20238;-72
2022/08/13 03:48:15;;;;;;;1.13;1.00;;;21.10;50.70;;;;;;4979531;28;20214;-83
2022/08/13 03:50:42;;;;;;;1.58;1.23;;;21.00;51.00;;;;;;5013220;28;20241;-81
2022/08/13 03:53:09;;;;;;;1.10;1.00;;;21.00;50.90;;;;;;5015414;28;20195;-80
2022/08/13 03:55:37;;;;;;;1.58;1.15;;;20.90;51.00;;;;;;5016072;28;20178;-81
2022/08/13 03:58:06;;;;;;;1.52;1.20;;;20.90;51.20;;;;;;4973169;28;20320;-82
2022/08/13 04:00:39;;;;;;;1.23;1.13;;;20.80;51.50;;;;;;4984772;28;20206;-81
2022/08/13 04:03:14;;;;;;;3.38;1.30;;;20.80;51.80;;;;;;4982102;28;20222;-81
2022/08/13 04:05:39;;;;;;;2.30;1.38;;;20.80;52.20;;;;;;4990076;28;20240;-80
2022/08/13 04:08:05;;;;;;;2.15;1.20;;;20.70;51.50;;;;;;4984628;28;20191;-81
2022/08/13 04:10:31;;;;;;;1.55;1.25;;;20.70;51.60;;;;;;4978004;28;20186;-80
2022/08/13 04:12:57;;;;;;;1.77;1.23;;;20.60;51.80;;;;;;5006666;28;20191;-81
2022/08/13 04:15:24;;;;;;;1.65;1.10;;;20.60;51.90;;;;;;4981531;28;20211;-82
2022/08/13 04:17:50;;;;;;;2.88;1.27;;;20.60;51.90;;;;;;4976747;28;20168;-84
2022/08/13 04:20:16;;;;;;;1.50;1.27;;;20.50;51.90;;;;;;5001112;28;20206;-77
2022/08/13 04:22:42;;;;;;;2.80;2.20;;;20.50;52.00;;;;;;4979489;28;20207;-82
2022/08/13 04:25:11;;;;;;;5.10;4.10;;;20.50;52.30;;;;;;4987651;28;20198;-82
2022/08/13 04:27:39;;;;;;;5.28;4.30;;;20.50;52.50;;;;;;4993559;28;20175;-82
2022/08/13 04:30:05;;;;;;;3.25;2.78;;;20.50;52.70;;;;;;4983527;28;20176;-82
2022/08/13 04:32:41;;;;;;;2.95;2.08;;;20.50;52.70;;;;;;4968826;28;20266;-76
2022/08/13 04:35:09;;;;;;;2.67;1.70;;;20.50;53.40;;;;;;4996401;28;20272;-79
2022/08/13 04:37:37;;;;;;;3.08;2.35;;;20.50;52.80;;;;;;4982994;28;20181;-81
2022/08/13 04:40:06;;;;;;;3.10;2.05;;;20.40;53.20;;;;;;4974547;28;20195;-80
2022/08/13 04:42:49;;;;;;;4.15;3.63;;;20.40;53.20;;;;;;5010727;28;20206;-79
2022/08/13 04:45:17;;;;;;;3.38;2.85;;;20.30;54.00;;;;;;4981790;28;20224;-82
2022/08/13 04:47:45;;;;;;;4.78;3.63;;;20.30;53.30;;;;;;5010864;28;20450;-81
2022/08/13 04:50:14;;;;;;;3.80;3.40;;;20.20;53.50;;;;;;4980710;28;20198;-79
2022/08/13 04:52:42;;;;;;;2.65;2.33;;;20.20;53.50;;;;;;4982298;28;20203;-82
2022/08/13 04:55:12;;;;;;;2.88;1.90;;;20.20;53.80;;;;;;4984424;28;20175;-79
2022/08/13 04:57:41;;;;;;;2.83;2.10;;;20.20;53.80;;;;;;5013946;28;20213;-82
2022/08/13 05:00:08;;;;;;;2.85;2.50;;;20.10;53.60;;;;;;5013668;28;20460;-80
2022/08/13 05:02:43;;;;;;;3.42;1.92;;;20.10;53.70;;;;;;4982860;28;20179;-83
2022/08/13 05:05:11;;;;;;;2.38;2.05;;;20.20;54.30;;;;;;5010505;28;20269;-79
2022/08/13 05:07:40;;;;;;;14.43;10.88;;;20.20;54.20;;;;;;4983465;28;20184;-82
2022/08/13 05:10:09;;;;;;;7.00;5.40;;;20.20;54.10;;;;;;4983728;28;20294;-79
2022/08/13 05:12:38;;;;;;;6.68;4.60;;;20.20;54.20;;;;;;4983265;28;20207;-82
2022/08/13 05:15:07;;;;;;;4.32;3.83;;;20.30;54.40;;;;;;4993503;28;20225;-83
2022/08/13 05:17:33;;;;;;;3.53;2.25;;;20.30;54.50;;;;;;5014821;28;20207;-81
2022/08/13 05:20:03;;;;;;;4.10;2.00;;;20.40;54.60;;;;;;4982273;28;20301;-84
2022/08/13 05:22:31;;;;;;;2.40;2.00;;;20.40;54.90;;;;;;5013223;28;20221;-84
2022/08/13 05:24:57;;;;;;;2.63;1.98;;;20.50;55.00;;;;;;5011610;28;20209;-85
2022/08/13 05:27:23;;;;;;;2.22;1.98;;;20.50;55.00;;;;;;4985756;28;20274;-84
2022/08/13 05:29:48;;;;;;;1.88;1.40;;;20.60;55.10;;;;;;5017532;28;20179;-79
2022/08/13 05:32:16;;;;;;;1.95;1.40;;;20.60;55.10;;;;;;5008468;28;20257;-84
2022/08/13 05:34:42;;;;;;;1.88;1.40;;;20.70;55.20;;;;;;4989914;28;20202;-84
2022/08/13 05:37:16;;;;;;;4.25;3.40;;;20.70;55.20;;;;;;5009676;28;20195;-82
2022/08/13 05:39:45;;;;;;;4.15;2.60;;;20.80;55.60;;;;;;5011539;28;20176;-84
2022/08/13 05:42:11;;;;;;;2.78;2.22;;;20.90;55.40;;;;;;5008528;28;20211;-83
2022/08/13 05:44:40;;;;;;;2.40;2.20;;;20.90;55.50;;;;;;4985649;28;20207;-82
2022/08/13 05:47:06;;;;;;;3.30;1.90;;;20.90;55.70;;;;;;5016994;28;20325;-84
2022/08/13 05:49:33;;;;;;;2.10;1.40;;;21.00;55.80;;;;;;5004482;28;20219;-82
2022/08/13 05:51:59;;;;;;;4.13;1.60;;;21.00;55.90;;;;;;4985885;28;20221;-79
2022/08/13 05:54:25;;;;;;;2.08;1.60;;;21.10;56.00;;;;;;5014508;28;20196;-80
2022/08/13 05:56:50;;;;;;;1.52;1.42;;;21.10;56.10;;;;;;5000313;28;20258;-80
2022/08/13 06:04:47;;;;;;;2.17;1.45;;;21.20;56.50;;;;;;5001455;28;20201;-78
2022/08/13 06:07:19;;;;;;;1.58;1.30;;;21.30;56.40;;;;;;4992235;28;20224;-73
2022/08/13 06:09:47;;;;;;;2.42;2.00;;;21.30;56.60;;;;;;5014805;28;20204;-71
2022/08/13 06:12:15;;;;;;;2.47;1.20;;;21.40;56.70;;;;;;4997189;28;20219;-72
2022/08/13 06:14:43;;;;;;;4.05;2.63;;;21.40;56.40;;;;;;5015026;28;20241;-71
2022/08/13 06:17:13;;;;;;;3.78;3.05;;;21.50;57.20;;;;;;4994208;28;20449;-73
2022/08/13 06:19:43;;;;;;;3.78;2.65;;;21.50;56.60;;;;;;5026332;28;20172;-74
2022/08/13 06:22:11;;;;;;;2.40;2.15;;;21.50;56.70;;;;;;4993884;28;20282;-73
2022/08/13 06:24:37;;;;;;;3.05;2.55;;;21.60;56.80;;;;;;4993368;28;20223;-73
2022/08/13 06:27:04;;;;;;;1.98;1.60;;;21.70;56.90;;;;;;4993276;28;20202;-74
2022/08/13 06:29:35;;;;;;;3.10;2.13;;;21.70;56.90;;;;;;5024879;28;20182;-73
2022/08/13 06:32:06;;;;;;;2.53;1.77;;;21.80;57.00;;;;;;4994161;28;20210;-70
2022/08/13 06:34:41;;;;;;;2.25;1.65;;;21.90;56.90;;;;;;4993862;28;20186;-73
2022/08/13 06:37:09;;;;;;;1.48;1.25;;;21.90;56.70;;;;;;5010309;28;20168;-69
2022/08/13 06:39:38;;;;;;;1.27;1.17;;;22.00;56.70;;;;;;4982233;28;20504;-74
2022/08/13 06:42:06;;;;;;;2.35;1.42;;;22.10;56.70;;;;;;5025471;28;20163;-72
2022/08/13 06:44:34;;;;;;;3.03;1.17;;;22.10;56.60;;;;;;5027530;28;20179;-73
2022/08/13 06:47:06;;;;;;;1.58;1.20;;;22.20;56.60;;;;;;5022267;28;20183;-72
2022/08/13 06:49:33;;;;;;;2.03;1.80;;;22.20;56.50;;;;;;5025138;28;20180;-75
2022/08/13 06:52:02;;;;;;;2.03;1.50;;;22.30;56.40;;;;;;4989579;28;20200;-73
2022/08/13 06:54:28;;;;;;;1.70;1.55;;;22.30;56.30;;;;;;5009172;28;20184;-72
2022/08/13 06:56:56;;;;;;;2.08;1.88;;;22.40;56.20;;;;;;5015762;28;20206;-73
2022/08/13 06:59:25;;;;;;;2.55;2.00;;;22.50;56.30;;;;;;4994141;28;20187;-73
2022/08/13 07:01:57;;;;;;;1.98;1.65;;;22.50;56.20;;;;;;4994010;28;20210;-73
2022/08/13 07:04:26;;;;;;;2.13;1.45;;;22.60;56.30;;;;;;4990117;28;20203;-74
2022/08/13 07:06:54;;;;;;;1.45;1.27;;;22.70;56.20;;;;;;5021348;28;20232;-71
2022/08/13 07:09:22;;;;;;;2.03;1.45;;;22.80;56.10;;;;;;5015678;28;20207;-74
2022/08/13 07:11:51;;;;;;;1.20;1.10;;;22.90;56.10;;;;;;5022183;28;20207;-72
2022/08/13 07:14:16;;;;;;;1.42;1.20;;;22.90;55.80;;;;;;4992263;28;20226;-72
2022/08/13 07:16:46;;;;;;;2.28;1.38;;;23.00;55.80;;;;;;4992367;28;20187;-72
2022/08/13 07:19:13;;;;;;;1.55;1.38;;;23.00;55.70;;;;;;5013179;28;20192;-73
2022/08/13 07:21:40;;;;;;;1.38;0.95;;;23.10;55.60;;;;;;5021906;28;20187;-73
2022/08/13 07:24:08;;;;;;;1.52;1.10;;;23.20;55.60;;;;;;5024971;28;20183;-72
2022/08/13 07:26:36;;;;;;;2.30;1.10;;;23.30;55.60;;;;;;4983399;28;20260;-76
2022/08/13 07:29:08;;;;;;;1.67;1.13;;;23.40;55.60;;;;;;4993991;28;20190;-75
2022/08/13 07:31:40;;;;;;;1.98;1.00;;;23.40;55.40;;;;;;5021236;28;20295;-75
2022/08/13 07:34:07;;;;;;;1.40;1.20;;;23.50;55.20;;;;;;5018027;28;20180;-74
2022/08/13 07:36:37;;;;;;;1.10;1.00;;;23.60;55.20;;;;;;4980908;28;20263;-82
2022/08/13 07:39:12;;;;;;;1.92;1.50;;;23.60;55.30;;;;;;5013701;28;20199;-71
2022/08/13 07:41:46;;;;;;;1.58;1.23;;;23.70;55.20;;;;;;4990350;28;20296;-73
2022/08/13 07:44:22;;;;;;;2.25;1.45;;;23.80;55.20;;;;;;4992066;28;20242;-72
2022/08/13 07:46:50;;;;;;;1.75;1.20;;;23.90;55.20;;;;;;5004085;28;20198;-71
2022/08/13 07:49:18;;;;;;;1.40;1.30;;;23.90;55.00;;;;;;4981868;28;20221;-71
2022/08/13 07:51:46;;;;;;;1.42;1.05;;;24.00;55.00;;;;;;4993426;28;20207;-71
2022/08/13 07:54:13;;;;;;;2.08;1.00;;;24.10;54.90;;;;;;5022810;28;20292;-73
2022/08/13 07:56:47;;;;;;;2.08;1.05;;;24.10;54.70;;;;;;4991118;28;20172;-73
2022/08/13 07:59:19;;;;;;;1.33;0.90;;;24.20;54.80;;;;;;5007270;28;20230;-73
2022/08/13 08:01:52;;;;;;;1.02;0.93;;;24.30;54.70;;;;;;5007620;28;20212;-73
2022/08/13 08:04:20;;;;;;;2.30;1.10;;;24.40;54.60;;;;;;5029125;28;20227;-72
2022/08/13 08:06:54;;;;;;;1.40;1.05;;;24.40;54.60;;;;;;4994189;28;20194;-71
2022/08/13 08:09:22;;;;;;;1.35;1.20;;;24.50;54.60;;;;;;4989481;28;20207;-73
2022/08/13 08:14:34;;;;;;;1.50;1.10;;;24.70;55.20;;;;;;5011588;28;20202;-73
2022/08/13 08:17:01;;;;;;;1.20;1.10;;;24.70;54.50;;;;;;4991934;28;20279;-71
2022/08/13 08:19:31;;;;;;;4.45;1.05;;;24.90;54.50;;;;;;4995465;28;20191;-72
2022/08/13 08:21:58;;;;;;;2.28;1.10;;;24.90;54.40;;;;;;5027957;28;20179;-74
2022/08/13 08:24:25;;;;;;;1.73;0.90;;;25.00;54.30;;;;;;4994006;28;20190;-73
2022/08/13 08:26:58;;;;;;;1.25;1.05;;;25.10;54.10;;;;;;4991411;28;20244;-74
2022/08/13 08:29:24;;;;;;;1.48;1.10;;;25.20;54.00;;;;;;5008161;28;20259;-73
2022/08/13 08:31:52;;;;;;;1.15;0.98;;;25.20;54.00;;;;;;5008794;28;20392;-74
2022/08/13 08:34:20;;;;;;;2.88;1.30;;;25.30;54.00;;;;;;4977243;28;20288;-74
2022/08/13 08:36:46;;;;;;;1.85;1.13;;;25.40;54.10;;;;;;4975923;28;20171;-74
2022/08/13 08:44:50;;;;;;;1.52;1.08;;;25.70;53.90;;;;;;5005240;28;20214;-73
2022/08/13 08:47:16;;;;;;;1.52;1.00;;;25.70;53.70;;;;;;5020700;28;20222;-73
2022/08/13 08:49:44;;;;;;;1.70;1.00;;;25.80;53.60;;;;;;5026416;28;20180;-73
2022/08/13 08:52:10;;;;;;;1.70;1.00;;;25.90;53.60;;;;;;4991181;28;20238;-72
2022/08/13 08:54:42;;;;;;;2.15;0.93;;;26.00;53.60;;;;;;4994648;28;20179;-72
2022/08/13 08:57:11;;;;;;;1.52;1.08;;;26.10;53.50;;;;;;4987174;28;20183;-71
2022/08/13 08:59:41;;;;;;;1.63;1.00;;;26.20;53.40;;;;;;4994108;28;20194;-74
2022/08/13 09:02:18;;;;;;;3.05;1.10;;;26.30;53.40;;;;;;5029043;28;20179;-70
2022/08/13 09:04:53;;;;;;;2.38;1.10;;;26.40;53.10;;;;;;5025058;28;20186;-75
2022/08/13 09:07:21;;;;;;;1.60;1.40;;;26.50;53.20;;;;;;4997147;28;20185;-74
2022/08/13 09:09:49;;;;;;;1.60;1.20;;;26.60;53.20;;;;;;5022918;28;20242;-73
2022/08/13 09:12:15;;;;;;;1.45;1.30;;;26.70;53.20;;;;;;4998814;28;20242;-73
2022/08/13 09:14:44;;;;;;;1.55;1.33;;;26.80;53.10;;;;;;4998335;28;20202;-75
2022/08/13 09:17:15;;;;;;;2.17;1.23;;;26.90;52.80;;;;;;4999567;28;20194;-73
2022/08/13 09:19:44;;;;;;;1.25;1.10;;;27.00;52.70;;;;;;5011034;28;20253;-74
2022/08/13 09:22:14;;;;;;;1.05;0.90;;;27.10;53.10;;;;;;5011479;28;20179;-72
2022/08/13 09:24:45;;;;;;;1.30;1.10;;;27.20;52.40;;;;;;5028134;28;20179;-70
2022/08/13 09:27:13;;;;;;;1.83;1.00;;;27.30;52.30;;;;;;4996734;28;20187;-72
2022/08/13 09:29:39;;;;;;;1.42;1.20;;;27.40;52.40;;;;;;4999307;28;20176;-69
2022/08/13 09:32:05;;;;;;;3.38;1.20;;;27.50;52.40;;;;;;5027520;28;20291;-74
2022/08/13 09:34:31;;;;;;;2.10;1.33;;;27.60;52.30;;;;;;4998949;28;20171;-75
2022/08/13 09:37:01;;;;;;;2.05;1.20;;;27.70;52.10;;;;;;5002140;28;20217;-73
2022/08/13 09:39:36;;;;;;;1.33;1.10;;;27.80;52.10;;;;;;4997914;28;20311;-70
2022/08/13 09:42:12;;;;;;;1.60;1.20;;;28.00;51.80;;;;;;5009879;28;20174;-75
2022/08/13 09:44:41;;;;;;;3.03;1.20;;;28.10;52.00;;;;;;4996735;28;20287;-73
2022/08/13 09:47:10;;;;;;;1.20;1.00;;;28.20;51.60;;;;;;4996362;28;20207;-76
2022/08/13 09:49:36;;;;;;;1.00;0.90;;;28.30;51.40;;;;;;5009033;28;20167;-69
2022/08/13 09:52:02;;;;;;;2.05;1.10;;;28.40;51.30;;;;;;4998484;28;20218;-71
2022/08/13 09:54:36;;;;;;;1.20;1.10;;;28.50;51.20;;;;;;5021035;28;20203;-75
2022/08/13 09:57:02;;;;;;;1.50;1.40;;;28.60;51.10;;;;;;5005772;28;20192;-72
2022/08/13 09:59:29;;;;;;;1.45;1.10;;;28.70;51.00;;;;;;5029803;28;20201;-76
2022/08/13 10:01:57;;;;;;;1.25;1.15;;;28.90;50.80;;;;;;5000589;28;20204;-74
2022/08/13 10:04:26;;;;;;;2.20;1.15;;;29.00;50.50;;;;;;5012757;28;20211;-74
2022/08/13 10:06:56;;;;;;;1.73;1.30;;;29.10;50.00;;;;;;5019196;28;20293;-77
2022/08/13 10:09:26;;;;;;;1.40;1.10;;;29.20;50.00;;;;;;4990115;28;20183;-76
2022/08/13 10:11:59;;;;;;;2.42;1.10;;;29.30;49.70;;;;;;4994056;28;20246;-75
2022/08/13 10:14:26;;;;;;;1.50;1.10;;;29.30;49.40;;;;;;5017004;28;23698;-73
2022/08/13 10:16:53;;;;;;;1.00;0.90;;;29.40;49.50;;;;;;5022294;28;20269;-78
2022/08/13 10:19:19;;;;;;;1.15;1.00;;;29.60;50.10;;;;;;5028113;28;20179;-76
2022/08/13 10:21:47;;;;;;;1.80;1.60;;;29.80;49.20;;;;;;4999963;28;20214;-75
2022/08/13 10:24:15;;;;;;;1.35;1.17;;;30.10;48.20;;;;;;5001059;28;20183;-73
2022/08/13 10:26:41;;;;;;;3.85;1.30;;;30.60;48.00;;;;;;4999918;28;20184;-73
2022/08/13 10:29:11;;;;;;;3.17;1.30;;;31.10;47.80;;;;;;5000848;28;20179;-70
2022/08/13 10:31:42;;;;;;;2.03;1.23;;;31.60;47.10;;;;;;4986599;28;20188;-70
2022/08/13 10:34:07;;;;;;;1.25;1.15;;;32.10;46.40;;;;;;5026007;28;20182;-72
2022/08/13 10:36:37;;;;;;;1.77;1.00;;;32.50;46.50;;;;;;4999507;28;20190;-70
2022/08/13 10:39:06;;;;;;;2.08;1.00;;;32.90;46.70;;;;;;5028012;28;20203;-74
2022/08/13 10:41:34;;;;;;;2.20;1.20;;;33.30;45.10;;;;;;5032899;28;20186;-75
2022/08/13 10:44:00;;;;;;;2.55;1.13;;;33.50;44.70;;;;;;5032532;28;20151;-75
2022/08/13 10:46:31;;;;;;;1.58;0.90;;;33.80;44.00;;;;;;4997212;28;20260;-69
2022/08/13 10:49:00;;;;;;;1.20;1.10;;;33.90;43.40;;;;;;5031381;28;20198;-72
2022/08/13 10:51:29;;;;;;;2.03;1.30;;;34.00;42.90;;;;;;4997807;28;20213;-75
2022/08/13 10:54:00;;;;;;;1.30;1.20;;;34.20;43.00;;;;;;4997179;28;20195;-72
2022/08/13 10:56:28;;;;;;;1.23;1.13;;;34.30;43.30;;;;;;4998532;28;20242;-75
2022/08/13 10:58:59;;;;;;;1.20;1.10;;;34.40;43.30;;;;;;5000384;28;20182;-75
2022/08/13 11:01:26;;;;;;;1.55;1.20;;;34.60;42.90;;;;;;5001056;28;20190;-74
2022/08/13 11:03:57;;;;;;;1.20;0.90;;;34.80;43.10;;;;;;4997435;28;20215;-70
2022/08/13 11:06:27;;;;;;;1.83;1.00;;;34.90;43.10;;;;;;5024890;28;20175;-73
2022/08/13 11:08:54;;;;;;;1.15;1.05;;;35.00;42.90;;;;;;5004149;28;20179;-71
2022/08/13 11:11:21;;;;;;;1.42;1.20;;;35.20;42.70;;;;;;5026360;28;20191;-71
2022/08/13 11:13:51;;;;;;;2.47;1.10;;;35.30;42.60;;;;;;4993486;28;20194;-72
2022/08/13 11:19:14;;;;;;;1.10;1.00;;;35.50;41.40;;;;;;5012651;28;20175;-71
2022/08/13 11:21:42;;;;;;;0.90;0.80;;;35.50;41.60;;;;;;4996838;28;20186;-72
2022/08/13 11:24:10;;;;;;;1.25;0.88;;;35.60;41.00;;;;;;5028484;28;20226;-70
2022/08/13 11:26:36;;;;;;;2.25;0.95;;;35.50;40.00;;;;;;4997064;28;20174;-74
2022/08/13 11:29:04;;;;;;;4.72;1.08;;;35.40;39.90;;;;;;5030102;28;20175;-75
2022/08/13 11:31:31;;;;;;;1.13;0.98;;;35.30;40.20;;;;;;4997897;28;20206;-69
2022/08/13 11:34:01;;;;;;;1.23;0.95;;;35.20;39.60;;;;;;4995173;28;20195;-73
2022/08/13 11:36:32;;;;;;;1.00;0.90;;;35.10;39.60;;;;;;5027118;28;20175;-77
2022/08/13 11:38:58;;;;;;;0.98;0.82;;;35.10;39.80;;;;;;4988083;28;20214;-71
2022/08/13 11:41:25;;;;;;;1.23;0.95;;;35.20;40.10;;;;;;4998249;28;20204;-79
2022/08/13 11:43:51;;;;;;;1.40;1.00;;;35.20;40.30;;;;;;4989478;28;20185;-81
2022/08/13 11:46:21;;;;;;;1.83;0.80;;;35.40;40.30;;;;;;4995684;28;20183;-71
2022/08/13 11:48:56;;;;;;;0.98;0.90;;;35.50;39.70;;;;;;4994195;28;20198;-71
2022/08/13 11:51:22;;;;;;;1.02;0.93;;;35.50;38.50;;;;;;4998562;28;20370;-72
2022/08/13 11:53:50;;;;;;;1.58;1.10;;;35.60;39.70;;;;;;5029609;28;20201;-72
2022/08/13 11:58:54;;;;;;;1.73;0.90;;;35.70;39.10;;;;;;4970362;28;20262;-72
2022/08/13 12:01:21;;;;;;;1.05;0.77;;;35.80;39.10;;;;;;4990832;28;20239;-73
2022/08/13 12:03:47;;;;;;;1.10;0.70;;;35.80;38.90;;;;;;4972145;28;20230;-73
2022/08/13 12:06:13;;;;;;;1.50;0.80;;;35.80;38.70;;;;;;4964948;28;20200;-73
2022/08/13 12:08:39;;;;;;;0.98;0.80;;;35.90;38.50;;;;;;4968915;28;20183;-74
2022/08/13 12:11:05;;;;;;;1.13;0.82;;;35.90;38.20;;;;;;4971821;28;20240;-76
2022/08/13 12:13:33;;;;;;;1.45;1.00;;;36.00;38.20;;;;;;5000423;28;20171;-74
2022/08/13 12:15:59;;;;;;;1.25;1.00;;;36.00;37.70;;;;;;4985276;28;20172;-78
2022/08/13 12:18:25;;;;;;;1.40;0.95;;;36.00;38.40;;;;;;4971441;28;20202;-71
2022/08/13 12:21:08;;;;;;;1.33;0.80;;;36.10;37.60;;;;;;5035980;28;20595;-76
2022/08/13 12:23:34;;;;;;;1.88;0.80;;;36.10;37.60;;;;;;5026956;28;20203;-76
2022/08/13 12:26:02;;;;;;;1.00;0.90;;;36.20;37.60;;;;;;5022508;28;20182;-76
2022/08/13 12:28:51;;;;;;;1.02;0.73;;;36.30;37.10;;;;;;5020089;28;20177;-73
2022/08/13 12:31:18;;;;;;;1.10;0.80;;;36.30;36.70;;;;;;5025503;28;20202;-79
2022/08/13 12:33:49;;;;;;;1.00;0.90;;;36.40;37.00;;;;;;5018724;28;20174;-74
2022/08/13 12:36:15;;;;;;;2.15;1.08;;;36.40;36.90;;;;;;5017602;28;20381;-82
2022/08/13 12:38:40;;;;;;;0.80;0.80;;;36.50;36.90;;;;;;5021043;28;20174;-76
2022/08/13 12:41:06;;;;;;;0.90;0.80;;;36.50;36.70;;;;;;5012485;28;20194;-77
2022/08/13 12:43:32;;;;;;;0.82;0.82;;;36.50;36.40;;;;;;5008811;28;20213;-80
2022/08/13 12:45:57;;;;;;;1.23;0.80;;;36.60;36.60;;;;;;5012287;28;20193;-74
2022/08/13 12:48:30;;;;;;;3.13;0.82;;;36.60;36.50;;;;;;5020083;28;20185;-79
2022/08/13 12:50:58;;;;;;;0.88;0.68;;;36.70;36.10;;;;;;5020632;28;20211;-76
2022/08/13 12:53:24;;;;;;;1.27;0.85;;;36.70;36.00;;;;;;5010476;28;20377;-79
2022/08/13 12:55:49;;;;;;;1.00;0.90;;;36.80;36.30;;;;;;5010668;28;20275;-74
2022/08/13 12:58:16;;;;;;;1.52;0.98;;;36.80;35.50;;;;;;5023411;28;20174;-72
2022/08/13 13:00:43;;;;;;;2.88;0.93;;;36.90;35.60;;;;;;5012511;28;20199;-74
2022/08/13 13:03:13;;;;;;;1.40;0.70;;;36.90;35.10;;;;;;5017189;28;20226;-74
2022/08/13 13:05:41;;;;;;;1.75;0.75;;;36.90;35.30;;;;;;5013812;28;20179;-75
2022/08/13 13:08:28;;;;;;;1.25;0.95;;;37.00;35.50;;;;;;5016345;28;20174;-73
2022/08/13 13:10:56;;;;;;;1.60;0.82;;;37.00;34.40;;;;;;5007331;28;20175;-75
2022/08/13 13:13:26;;;;;;;2.08;0.80;;;37.00;35.30;;;;;;5028881;28;20187;-74
2022/08/13 13:15:53;;;;;;;0.95;0.80;;;37.10;35.20;;;;;;5018728;28;20194;-74
2022/08/13 13:18:25;;;;;;;1.20;1.08;;;37.10;35.00;;;;;;5020423;28;20244;-75
2022/08/13 13:20:54;;;;;;;2.75;1.20;;;37.20;34.90;;;;;;5016418;28;20237;-73
2022/08/13 13:23:25;;;;;;;1.33;1.10;;;37.30;34.90;;;;;;5015439;28;20182;-74
2022/08/13 13:25:54;;;;;;;7.60;0.90;;;37.30;33.70;;;;;;5018853;28;20183;-74
2022/08/13 13:28:23;;;;;;;0.70;0.70;;;37.40;34.40;;;;;;5010595;28;20205;-75
2022/08/13 13:30:50;;;;;;;0.73;0.70;;;37.40;34.10;;;;;;5019950;28;20181;-71